createdAt,value
2023-01-21T00:01:56.977Z,86.24
2023-01-21T00:05:44.810Z,86.48
2023-01-21T00:09:32.669Z,86.58
2023-01-21T00:13:20.402Z,86.89
2023-01-21T00:17:08.265Z,87.01
2023-01-21T00:20:56.124Z,86.85
2023-01-21T00:24:43.936Z,86.97
2023-01-21T00:28:31.693Z,87.40
2023-01-21T00:32:19.451Z,87.17
2023-01-21T00:36:07.352Z,87.43
2023-01-21T00:39:55.150Z,87.25
2023-01-21T00:43:42.874Z,87.54
2023-01-21T00:47:30.638Z,87.96
2023-01-21T00:51:21.205Z,87.56
2023-01-21T00:55:08.961Z,87.98
2023-01-21T00:58:56.913Z,88.06
2023-01-21T01:02:44.727Z,88.72
2023-01-21T01:06:33.523Z,89.02
2023-01-21T01:10:21.296Z,89.01
2023-01-21T01:14:09.005Z,89.41
2023-01-21T01:17:56.827Z,88.97
2023-01-21T01:21:44.577Z,89.12
2023-01-21T01:25:32.283Z,89.20
2023-01-21T01:29:20.035Z,88.71
2023-01-21T01:33:07.812Z,89.02
2023-01-21T01:36:55.511Z,89.36
2023-01-21T01:40:43.320Z,89.03
2023-01-21T01:44:32.801Z,89.17
2023-01-21T01:48:20.658Z,88.49
2023-01-21T01:52:08.545Z,88.41
2023-01-21T01:55:56.306Z,87.97
2023-01-21T01:59:43.997Z,88.50
2023-01-21T02:03:30.243Z,88.12
2023-01-21T02:06:57.665Z,88.00
2023-01-21T02:10:45.557Z,88.67
2023-01-21T02:14:33.243Z,88.44
2023-01-21T02:18:26.915Z,88.34
2023-01-21T02:22:15.805Z,88.00
2023-01-21T02:26:14.526Z,87.92
2023-01-21T02:30:00.436Z,87.67
2023-01-21T02:33:57.294Z,87.73
2023-01-21T02:37:49.691Z,87.64
2023-01-21T02:41:46.239Z,87.53
2023-01-21T02:45:38.419Z,87.17
2023-01-21T02:49:29.002Z,87.39
2023-01-21T02:53:19.481Z,87.26
2023-01-21T02:57:10.023Z,87.48
2023-01-21T03:01:03.564Z,87.23
2023-01-21T03:04:55.855Z,87.14
2023-01-21T03:08:58.563Z,87.30
2023-01-21T03:12:46.328Z,87.32
2023-01-21T03:16:32.770Z,87.14
2023-01-21T03:20:20.526Z,87.09
2023-01-21T03:24:11.137Z,87.00
2023-01-21T03:27:59.047Z,86.95
2023-01-21T03:31:49.828Z,86.98
2023-01-21T03:35:37.604Z,86.93
2023-01-21T03:39:25.265Z,86.73
2023-01-21T03:43:13.036Z,87.14
2023-01-21T03:46:59.223Z,86.83
2023-01-21T03:50:47.071Z,86.93
2023-01-21T03:54:37.727Z,87.10
2023-01-21T03:58:25.396Z,86.78
2023-01-21T04:02:13.201Z,86.81
2023-01-21T04:06:00.984Z,86.61
2023-01-21T04:09:48.722Z,86.99
2023-01-21T04:13:36.511Z,86.55
2023-01-21T04:17:24.238Z,86.71
2023-01-21T04:21:12.344Z,86.94
2023-01-21T04:25:00.038Z,87.11
2023-01-21T04:28:47.722Z,86.75
2023-01-21T04:32:35.429Z,86.85
2023-01-21T04:36:23.383Z,86.67
2023-01-21T04:40:11.190Z,86.82
2023-01-21T04:43:58.970Z,86.76
2023-01-21T04:47:46.669Z,86.56
2023-01-21T04:51:34.407Z,87.09
2023-01-21T04:55:23.335Z,86.88
2023-01-21T04:59:13.485Z,86.60
2023-01-21T05:03:01.196Z,86.84
2023-01-21T05:06:48.952Z,87.30
2023-01-21T05:10:36.721Z,87.34
2023-01-21T05:14:24.482Z,87.29
2023-01-21T05:18:12.149Z,87.07
2023-01-21T05:21:59.829Z,87.04
2023-01-21T05:25:47.667Z,86.89
2023-01-21T05:29:35.431Z,86.83
2023-01-21T05:33:23.237Z,87.10
2023-01-21T05:37:11.149Z,87.12
2023-01-21T05:40:58.879Z,86.89
2023-01-21T05:44:46.604Z,87.23
2023-01-21T05:48:34.343Z,86.92
2023-01-21T05:52:22.143Z,87.14
2023-01-21T05:56:09.937Z,86.93
2023-01-21T05:59:57.639Z,86.98
2023-01-21T06:03:45.443Z,86.99
2023-01-21T06:07:33.210Z,86.86
2023-01-21T06:11:20.898Z,86.73
2023-01-21T06:15:08.659Z,86.52
2023-01-21T06:18:56.437Z,86.89
2023-01-21T06:22:44.142Z,87.20
2023-01-21T06:26:31.865Z,86.60
2023-01-21T06:30:19.676Z,87.06
2023-01-21T06:34:07.431Z,87.11
2023-01-21T06:37:55.122Z,86.94
2023-01-21T06:41:42.825Z,87.13
2023-01-21T06:45:30.587Z,86.80
2023-01-21T06:49:18.397Z,86.70
2023-01-21T06:52:58.857Z,87.06
2023-01-21T06:56:46.767Z,86.65
2023-01-21T07:00:34.509Z,86.76
2023-01-21T07:04:22.347Z,86.67
2023-01-21T07:08:10.053Z,87.04
2023-01-21T07:11:57.793Z,86.53
2023-01-21T07:15:45.903Z,86.73
2023-01-21T07:19:33.618Z,86.45
2023-01-21T07:23:21.313Z,87.02
2023-01-21T07:27:09.006Z,86.60
2023-01-21T07:30:56.836Z,86.29
2023-01-21T07:34:44.575Z,86.44
2023-01-21T07:38:32.301Z,86.50
2023-01-21T07:42:20.306Z,86.51
2023-01-21T07:46:08.150Z,86.51
2023-01-21T07:49:55.845Z,86.08
2023-01-21T07:53:44.059Z,86.25
2023-01-21T07:57:31.807Z,86.74
2023-01-21T08:01:19.659Z,86.60
2023-01-21T08:05:07.403Z,86.72
2023-01-21T08:08:55.099Z,86.58
2023-01-21T08:12:45.578Z,86.62
2023-01-21T08:16:33.343Z,86.41
2023-01-21T08:20:21.088Z,86.20
2023-01-21T08:24:08.834Z,86.35
2023-01-21T08:27:59.414Z,86.26
2023-01-21T08:31:50.231Z,86.29
2023-01-21T08:35:37.957Z,85.29
2023-01-21T08:39:25.687Z,85.54
2023-01-21T08:43:13.496Z,84.08
2023-01-21T08:47:01.207Z,82.59
2023-01-21T08:50:49.126Z,82.30
2023-01-21T08:54:36.819Z,81.05
2023-01-21T08:58:24.553Z,80.75
2023-01-21T09:02:12.313Z,82.58
2023-01-21T09:06:00.117Z,81.39
2023-01-21T09:09:47.903Z,83.15
2023-01-21T09:13:35.650Z,79.23
2023-01-21T09:17:23.376Z,77.23
2023-01-21T09:21:11.265Z,79.25
2023-01-21T09:24:58.964Z,77.62
2023-01-21T09:28:46.755Z,77.84
2023-01-21T09:32:34.505Z,77.48
2023-01-21T09:36:22.272Z,78.43
2023-01-21T09:40:09.940Z,77.53
2023-01-21T09:43:57.629Z,77.39
2023-01-21T09:47:43.959Z,74.84
2023-01-21T09:51:31.723Z,74.14
2023-01-21T09:55:22.322Z,72.84
2023-01-21T09:59:22.292Z,76.55
2023-01-21T10:03:10.111Z,76.68
2023-01-21T10:06:59.356Z,73.18
2023-01-21T10:11:01.971Z,74.49
2023-01-21T10:15:19.968Z,69.91
2023-01-21T10:19:10.492Z,71.49
2023-01-21T10:22:58.275Z,68.11
2023-01-21T10:26:46.027Z,63.15
2023-01-21T10:30:33.853Z,67.37
2023-01-21T10:34:21.637Z,67.01
2023-01-21T10:38:15.260Z,64.68
2023-01-21T10:42:24.103Z,62.04
2023-01-21T10:46:17.967Z,60.46
2023-01-21T10:50:19.536Z,63.50
2023-01-21T10:54:07.236Z,67.00
2023-01-21T10:58:06.841Z,63.95
2023-01-21T11:02:09.789Z,61.07
2023-01-21T11:05:57.635Z,58.09
2023-01-21T11:09:45.340Z,65.17
2023-01-21T11:13:33.083Z,64.92
2023-01-21T11:17:19.253Z,65.35
2023-01-21T11:21:07.145Z,64.50
2023-01-21T11:25:00.427Z,66.62
2023-01-21T11:29:04.260Z,65.31
2023-01-21T11:33:02.872Z,67.45
2023-01-21T11:36:30.336Z,64.41
2023-01-21T11:40:20.700Z,63.08
2023-01-21T11:44:07.530Z,61.37
2023-01-21T11:47:55.282Z,62.69
2023-01-21T11:51:45.563Z,61.57
2023-01-21T11:55:33.304Z,63.27
2023-01-21T11:59:26.867Z,61.57
2023-01-21T12:03:20.647Z,64.16
2023-01-21T12:07:08.386Z,60.57
2023-01-21T12:11:17.261Z,61.79
2023-01-21T12:15:23.239Z,63.54
2023-01-21T12:19:19.773Z,63.31
2023-01-21T12:23:19.481Z,63.27
2023-01-21T12:27:10.122Z,56.41
2023-01-21T12:30:55.385Z,59.07
2023-01-21T12:34:49.057Z,61.28
2023-01-21T12:38:35.382Z,62.82
2023-01-21T12:42:23.114Z,55.07
2023-01-21T12:46:03.927Z,56.21
2023-01-21T12:49:54.467Z,56.71
2023-01-21T12:53:43.789Z,59.54
2023-01-21T12:57:28.764Z,62.06
2023-01-21T13:01:16.504Z,60.86
2023-01-21T13:05:22.534Z,61.08
2023-01-21T13:09:25.246Z,60.68
2023-01-21T13:13:15.852Z,61.19
2023-01-21T13:17:03.827Z,60.66
2023-01-21T13:20:57.564Z,58.48
2023-01-21T13:24:51.110Z,60.74
2023-01-21T13:28:38.859Z,61.32
2023-01-21T13:32:34.051Z,59.02
2023-01-21T13:36:24.424Z,59.65
2023-01-21T13:40:24.044Z,58.64
2023-01-21T13:44:14.455Z,61.23
2023-01-21T13:48:23.458Z,59.85
2023-01-21T13:52:23.424Z,58.34
2023-01-21T13:56:11.216Z,59.79
2023-01-21T14:00:01.796Z,61.27
2023-01-21T14:04:03.142Z,61.70
2023-01-21T14:08:01.431Z,62.43
2023-01-21T14:11:49.217Z,63.17
2023-01-21T14:15:45.717Z,64.11
2023-01-21T14:19:36.102Z,64.59
2023-01-21T14:23:32.935Z,64.89
2023-01-21T14:27:09.504Z,65.19
2023-01-21T14:31:12.559Z,65.51
2023-01-21T14:35:05.971Z,65.75
2023-01-21T14:39:05.703Z,65.90
2023-01-21T14:42:53.327Z,66.01
2023-01-21T14:47:02.235Z,66.25
2023-01-21T14:50:50.037Z,67.24
2023-01-21T14:54:49.541Z,67.11
2023-01-21T14:58:37.340Z,67.56
2023-01-21T15:02:32.670Z,67.17
2023-01-21T15:06:29.378Z,67.36
2023-01-21T15:10:17.167Z,68.49
2023-01-21T15:14:13.650Z,68.77
2023-01-21T15:17:59.640Z,68.98
2023-01-21T15:21:48.856Z,69.09
2023-01-21T15:25:42.338Z,69.52
2023-01-21T15:29:32.959Z,69.39
2023-01-21T15:33:38.938Z,69.90
2023-01-21T15:37:29.643Z,69.99
2023-01-21T15:41:17.436Z,69.78
2023-01-21T15:45:11.111Z,70.44
2023-01-21T15:49:17.164Z,71.15
2023-01-21T15:53:04.921Z,70.80
2023-01-21T15:57:14.028Z,71.13
2023-01-21T16:01:19.849Z,71.04
2023-01-21T16:05:10.579Z,70.89
2023-01-21T16:08:58.310Z,71.46
2023-01-21T16:12:57.865Z,71.20
2023-01-21T16:17:00.863Z,72.31
2023-01-21T16:20:48.765Z,72.62
2023-01-21T16:24:39.390Z,72.67
2023-01-21T16:28:27.152Z,72.85
2023-01-21T16:32:14.871Z,72.86
2023-01-21T16:36:02.616Z,72.74
2023-01-21T16:39:50.350Z,72.89
2023-01-21T16:43:43.931Z,73.24
2023-01-21T16:47:31.730Z,73.73
2023-01-21T16:51:19.472Z,73.31
2023-01-21T16:55:16.360Z,74.75
2023-01-21T16:59:04.386Z,74.34
2023-01-21T17:02:55.283Z,74.55
2023-01-21T17:06:48.912Z,74.21
2023-01-21T17:10:39.440Z,74.38
2023-01-21T17:14:27.177Z,74.25
2023-01-21T17:18:14.922Z,74.57
2023-01-21T17:22:02.708Z,75.00
2023-01-21T17:25:53.366Z,74.38
2023-01-21T17:29:49.950Z,74.26
2023-01-21T17:33:17.446Z,74.39
2023-01-21T17:37:05.151Z,75.82
2023-01-21T17:41:10.910Z,75.56
2023-01-21T17:45:01.282Z,75.16
2023-01-21T17:48:49.039Z,76.14
2023-01-21T17:52:36.909Z,75.15
2023-01-21T17:56:24.760Z,75.84
2023-01-21T18:00:17.062Z,75.83
2023-01-21T18:04:04.813Z,74.90
2023-01-21T18:07:55.443Z,75.31
2023-01-21T18:11:45.409Z,76.04
2023-01-21T18:15:33.445Z,76.34
2023-01-21T18:19:21.921Z,76.73
2023-01-21T18:23:09.652Z,76.50
2023-01-21T18:26:57.465Z,76.99
2023-01-21T18:30:54.339Z,76.51
2023-01-21T18:34:42.262Z,76.72
2023-01-21T18:38:31.155Z,76.33
2023-01-21T18:42:20.183Z,76.61
2023-01-21T18:46:08.181Z,76.46
2023-01-21T18:49:55.967Z,76.60
2023-01-21T18:53:43.713Z,77.58
2023-01-21T18:57:31.608Z,77.12
2023-01-21T19:01:23.798Z,76.97
2023-01-21T19:05:13.439Z,77.31
2023-01-21T19:09:01.214Z,77.14
2023-01-21T19:12:48.967Z,77.59
2023-01-21T19:16:36.787Z,77.14
2023-01-21T19:20:24.592Z,77.22
2023-01-21T19:24:15.233Z,77.74
2023-01-21T19:28:03.050Z,77.83
2023-01-21T19:31:50.835Z,77.32
2023-01-21T19:35:38.810Z,77.99
2023-01-21T19:39:26.524Z,78.20
2023-01-21T19:43:14.244Z,78.27
2023-01-21T19:47:02.033Z,77.81
2023-01-21T19:50:49.891Z,77.85
2023-01-21T19:54:37.656Z,77.79
2023-01-21T19:58:25.355Z,78.06
2023-01-21T20:02:13.182Z,78.20
2023-01-21T20:06:01.023Z,77.99
2023-01-21T20:09:49.017Z,77.93
2023-01-21T20:13:36.924Z,78.21
2023-01-21T20:17:24.686Z,78.08
2023-01-21T20:21:15.202Z,78.50
2023-01-21T20:25:02.982Z,78.68
2023-01-21T20:29:02.710Z,78.44
2023-01-21T20:32:50.489Z,78.57
2023-01-21T20:36:38.284Z,78.91
2023-01-21T20:40:26.065Z,78.78
2023-01-21T20:44:13.807Z,78.45
2023-01-21T20:48:01.568Z,78.99
2023-01-21T20:51:49.253Z,78.79
2023-01-21T20:55:37.025Z,78.94
2023-01-21T20:59:24.717Z,78.99
2023-01-21T21:03:12.422Z,78.72
2023-01-21T21:07:02.879Z,79.55
2023-01-21T21:10:59.449Z,79.37
2023-01-21T21:14:26.885Z,79.56
2023-01-21T21:18:14.643Z,80.43
2023-01-21T21:22:02.375Z,79.83
2023-01-21T21:25:50.129Z,80.01
2023-01-21T21:29:37.848Z,79.67
2023-01-21T21:33:25.536Z,79.43
2023-01-21T21:37:13.356Z,79.56
2023-01-21T21:40:59.898Z,79.72
2023-01-21T21:44:47.574Z,79.62
2023-01-21T21:48:33.970Z,79.99
2023-01-21T21:52:21.737Z,79.88
2023-01-21T21:56:09.655Z,79.32
2023-01-21T21:59:57.357Z,80.11
2023-01-21T22:03:45.062Z,80.06
2023-01-21T22:07:32.807Z,79.61
2023-01-21T22:11:20.588Z,80.19
2023-01-21T22:15:08.286Z,80.02
2023-01-21T22:18:55.999Z,80.24
2023-01-21T22:22:43.734Z,80.27
2023-01-21T22:26:31.442Z,80.33
2023-01-21T22:30:19.184Z,80.55
2023-01-21T22:34:06.943Z,79.99
2023-01-21T22:37:54.720Z,80.23
2023-01-21T22:41:42.469Z,80.24
2023-01-21T22:45:30.129Z,80.75
2023-01-21T22:49:17.883Z,80.59
2023-01-21T22:53:06.703Z,80.57
2023-01-21T22:56:57.180Z,80.54
2023-01-21T23:00:44.997Z,80.67
2023-01-21T23:04:32.765Z,80.40
2023-01-21T23:08:20.508Z,80.58
2023-01-21T23:12:08.211Z,80.56
2023-01-21T23:15:56.064Z,80.71
2023-01-21T23:19:43.811Z,80.71
2023-01-21T23:23:31.546Z,81.44
2023-01-21T23:27:19.229Z,80.83
2023-01-21T23:31:07.270Z,80.71
2023-01-21T23:34:55.346Z,81.02
2023-01-21T23:38:43.117Z,80.91
2023-01-21T23:42:30.871Z,81.50
2023-01-21T23:46:18.869Z,81.41
2023-01-21T23:50:06.597Z,81.38
2023-01-21T23:53:54.317Z,81.56
2023-01-21T23:57:42.048Z,81.16
